Terminal Aerodrome Forecast
Issued by NWS Binghamton, NY

Home | Current Version | Previous Version | Text Only | Print | Product List | Glossary On
Versions: 1 2 3 4 5 6 7 8 9 10 11 12 13 14 15 16 17 18 19 20 21 22
000
FTUS41 KBGM 192300 RRA
TAFAVP
TAF
KAVP 192343Z 2000/2024 17005KT P6SM SCT040
     FM200400 VRB03KT P6SM OVC025
     FM200700 VRB03KT P6SM OVC015
      TEMPO 2009/2013 5SM -DZ BR
     FM201500 22010KT P6SM OVC025=

USA.gov is the U.S. government's official web portal to all federal, state and local government web resources and services.